Terminal Aerodrome Forecast
Issued by NWS

Home | Current Version | Previous Version | Text Only | Print | Product List | Glossary Off
Versions: 1 2 3 4 5 6 7 8 9 10 11 12 13 14 15 16 17 18 19 20 21

000
FTUS44 KTSA 180500
TAFBVO
TAF
KBVO 180520Z 1806/1906 VRB03KT P6SM BKN040
     FM180800 15008KT P6SM TSRA BKN025CB
     FM181800 16011KT 3SM TSRA BR OVC015CB
     FM190000 11006KT P6SM OVC050=

USA.gov is the U.S. government's official web portal to all federal, state and local government web resources and services.